Aquasurazo — D5NA6 — position and weather

sailwx.info

Track history (hours):
 
Tides and Currents Weather Stations Pressure Air Temp Water Temp Dewpoint Dewpoint Depression Visibility Wind Speed Wind Dir Waves Ship Positions

Aquasurazo

Last reported at 2017-Sep-20 07:56 UTC. Time now 2017-Sep-24 14:11 UTC.
Position N 26°01' W 115°35'.

Length 244 m; draft 8.2 m.

Type: Tanker. MMSI: 636017858.

Date/timePositionNaut miles runAvg speedWind from/ knotsBaromVisibWave heightAir tempDewpointWater temp
2017-Sep-20 07:56N 26°01' W 115°35'37711.9
2017-Sep-19 00:19N 32°00' W 117°44'512.6
2017-Sep-18 23:54N 32°05' W 117°45'512.6
2017-Sep-18 23:28N 32°11' W 117°46'612.6
2017-Sep-18 23:00N 32°17' W 117°47'612.7
2017-Sep-18 22:30N 32°23' W 117°48'611.4
2017-Sep-18 22:00N 32°28' W 117°49'611.0
2017-Sep-18 21:30N 32°34' W 117°50'611.0
2017-Sep-18 21:00N 32°39' W 117°52'612.0
2017-Sep-18 20:30N 32°45' W 117°54'612.5
2017-Sep-18 20:00N 32°51' W 117°56'613.0
2017-Sep-18 19:31N 32°57' W 117°58'612.7
2017-Sep-18 19:00N 33°03' W 118°00'612.5
2017-Sep-18 18:30N 33°09' W 118°02'612.4
2017-Sep-18 18:00N 33°15' W 118°04'611.8
2017-Sep-18 17:30N 33°21' W 118°07'611.5
2017-Sep-18 17:00N 33°26' W 118°10'510.9
2017-Sep-18 16:30N 33°31' W 118°11'510.4
2017-Sep-18 16:00N 33°36' W 118°13'511.0
2017-Sep-18 15:30N 33°42' W 118°12'3 5.0
2017-Sep-18 14:57N 33°44' W 118°10'0 0.2
2017-Sep-18 14:30N 33°44' W 118°10'0 0.0
2017-Sep-18 13:48N 33°44' W 118°10'0 0.2
2017-Sep-18 13:30N 33°44' W 118°10'0 0.0
2017-Sep-18 12:54N 33°44' W 118°10'0 0.0
2017-Sep-18 12:30N 33°44' W 118°10'0 0.0
2017-Sep-18 12:00N 33°44' W 118°10'0 0.0
2017-Sep-18 11:24N 33°44' W 118°10'0 0.0
2017-Sep-18 11:00N 33°44' W 118°10'0 0.0
2017-Sep-18 10:30N 33°44' W 118°10'0 0.1
2017-Sep-18 10:00N 33°44' W 118°10'0 0.1
2017-Sep-18 09:30N 33°44' W 118°10'0 0.1
2017-Sep-18 09:00N 33°44' W 118°10'0 0.1
2017-Sep-18 08:27N 33°44' W 118°10'0 0.1
2017-Sep-18 07:57N 33°44' W 118°10'0 0.0
2017-Sep-18 07:30N 33°44' W 118°10'0 0.0
2017-Sep-18 06:57N 33°44' W 118°10'0 0.1
2017-Sep-18 06:27N 33°44' W 118°10'0 0.0
2017-Sep-18 05:57N 33°44' W 118°10'0 0.1
2017-Sep-18 05:30N 33°44' W 118°10'0 0.0
2017-Sep-18 04:57N 33°44' W 118°10'0 0.0
2017-Sep-18 02:09N 33°44' W 118°10'0 0.2
2017-Sep-18 01:54N 33°44' W 118°10'2 5.1
2017-Sep-18 01:30N 33°42' W 118°11'4 8.0
2017-Sep-18 01:00N 33°38' W 118°10'3 6.3
2017-Sep-18 00:30N 33°35' W 118°09'3 5.1
2017-Sep-18 00:00N 33°33' W 118°08'3 6.1
2017-Sep-17 23:30N 33°30' W 118°07'3 6.4
2017-Sep-17 23:00N 33°27' W 118°06'4 7.0
2017-Sep-17 22:30N 33°23' W 118°04'611.9
2017-Sep-17 22:00N 33°18' W 118°02'612.8
2017-Sep-17 21:30N 33°12' W 117°60'510.6
2017-Sep-17 21:00N 33°07' W 118°02'3 5.1
2017-Sep-17 20:31N 33°04' W 118°04'611.8
2017-Sep-17 20:01N 32°59' W 118°06'713.6
2017-Sep-17 19:30N 32°52' W 118°08'713.8
2017-Sep-17 19:01N 32°46' W 118°11'713.6
2017-Sep-17 18:31N 32°39' W 118°13'713.2
2017-Sep-17 18:01N 32°34' W 118°18'714.0
2017-Sep-17 17:30N 32°28' W 118°23'914.0
2017-Sep-17 16:52N 32°21' W 118°29'614.1
2017-Sep-17 16:25N 32°16' W 118°34'613.8
2017-Sep-17 16:00N 32°11' W 118°38'713.6
2017-Sep-17 15:30N 32°06' W 118°42'713.9
2017-Sep-17 15:00N 32°01' W 118°47'713.7
2017-Sep-17 14:30N 31°54' W 118°51'713.4
2017-Sep-17 14:01N 31°48' W 118°54'713.9
2017-Sep-17 13:30N 31°42' W 118°58'713.3
2017-Sep-17 13:00N 31°36' W 119°01'2 3.1
2017-Sep-17 12:26N 31°36' W 119°03'1 1.9
2017-Sep-17 12:00N 31°36' W 119°04'1 1.8
2017-Sep-17 11:30N 31°36' W 119°05'1 2.2
2017-Sep-17 10:51N 31°37' W 119°07'1 2.4
2017-Sep-17 10:30N 31°37' W 119°08'2 2.8
2017-Sep-17 09:56N 31°38' W 119°09'1 2.3
2017-Sep-17 09:30N 31°38' W 119°10'1 1.5
2017-Sep-17 09:00N 31°39' W 119°11'1 1.4
2017-Sep-17 08:30N 31°39' W 119°11'1 1.5
2017-Sep-17 07:59N 31°40' W 119°12'1 1.4
2017-Sep-17 07:29N 31°40' W 119°12'1 1.3
2017-Sep-17 06:59N 31°41' W 119°13'1 1.3
2017-Sep-17 06:26N 31°41' W 119°13'1 1.7
2017-Sep-17 05:56N 31°42' W 119°14'1 1.6
2017-Sep-17 05:30N 31°43' W 119°14'1 1.6
2017-Sep-17 05:00N 31°43' W 119°15'1 1.7
2017-Sep-17 04:29N 31°44' W 119°16'1 2.0
2017-Sep-17 04:00N 31°45' W 119°16'1 2.0
2017-Sep-17 03:30N 31°45' W 119°17'1 2.0
2017-Sep-17 03:00N 31°46' W 119°18'1 1.9
2017-Sep-17 02:28N 31°47' W 119°18'1 2.0
2017-Sep-17 02:00N 31°48' W 119°19'1 2.1
2017-Sep-17 01:30N 31°49' W 119°20'1 2.3
2017-Sep-17 01:00N 31°50' W 119°20'1 2.4
2017-Sep-17 00:30N 31°51' W 119°21'1 2.5
2017-Sep-17 00:00N 31°52' W 119°22'1 2.5
2017-Sep-16 23:30N 31°53' W 119°23'1 2.6
2017-Sep-16 23:00N 31°54' W 119°24'1 2.6
2017-Sep-16 22:30N 31°55' W 119°25'1 2.5
2017-Sep-16 22:00N 31°56' W 119°26'1 2.3
2017-Sep-16 21:30N 31°56' W 119°27'1 2.5
2017-Sep-16 21:00N 31°57' W 119°28'1 2.4
2017-Sep-16 20:30N 31°58' W 119°29'1 2.3
2017-Sep-16 20:00N 31°59' W 119°30'1 2.5
2017-Sep-16 19:30N 31°60' W 119°31'1 2.6
2017-Sep-16 19:00N 32°00' W 119°32'1 2.5
2017-Sep-16 18:30N 32°01' W 119°33'1 2.3
2017-Sep-16 18:00N 32°02' W 119°35'1 2.9
2017-Sep-16 17:30N 32°03' W 119°36'2 4.6
2017-Sep-16 17:00N 32°04' W 119°38'2 4.5
2017-Sep-16 16:30N 32°05' W 119°40'2 3.9
2017-Sep-16 16:00N 32°06' W 119°42'2 3.0
2017-Sep-16 15:30N 32°07' W 119°44'1 2.6
2017-Sep-16 15:00N 32°08' W 119°45'1 2.8
2017-Sep-16 14:30N 32°09' W 119°47'1 2.9
2017-Sep-16 14:00N 32°10' W 119°48'4 8.6
2017-Sep-16 13:30N 32°14' W 119°48'1 2.0
2017-Sep-16 12:54N 32°14' W 119°49'1 1.4
2017-Sep-16 12:30N 32°15' W 119°50'1 1.4
2017-Sep-16 12:00N 32°15' W 119°51'1 1.1
2017-Sep-16 11:29N 32°15' W 119°51'2 4.6
2017-Sep-16 10:59N 32°13' W 119°52'510.6
2017-Sep-16 10:30N 32°08' W 119°53'510.6
2017-Sep-16 10:00N 32°03' W 119°54'3 5.2
2017-Sep-16 09:30N 32°00' W 119°52'1 2.1
2017-Sep-16 09:00N 32°01' W 119°52'11 2.4
2017-Sep-16 04:11N 32°13' W 119°51'2 2.4
2017-Sep-16 03:17N 32°15' W 119°52'1 2.3
2017-Sep-16 02:48N 32°16' W 119°52'1 2.2
2017-Sep-16 02:30N 32°17' W 119°52'0 0.9
2017-Sep-16 02:00N 32°17' W 119°52'6 8.7
2017-Sep-16 01:19N 32°14' W 119°46'311.0
2017-Sep-16 01:00N 32°13' W 119°42'510.9
2017-Sep-16 00:30N 32°10' W 119°36'510.9
2017-Sep-16 00:00N 32°08' W 119°31'611.0
2017-Sep-15 23:28N 32°05' W 119°25'511.0
2017-Sep-15 23:00N 32°02' W 119°19'611.2
2017-Sep-15 22:30N 31°60' W 119°14'611.3
2017-Sep-15 22:00N 31°57' W 119°08'611.2
2017-Sep-15 21:30N 31°54' W 119°02'611.3
2017-Sep-15 21:00N 31°52' W 118°56'611.2
2017-Sep-15 20:30N 31°49' W 118°50'2 4.5
2017-Sep-15 20:00N 31°48' W 118°48'1 1.1
2017-Sep-15 19:17N 31°48' W 118°49'0 1.1
2017-Sep-15 19:00N 31°48' W 118°49'1 1.0
2017-Sep-15 17:42N 31°49' W 118°51'0 0.9
2017-Sep-15 17:25N 31°49' W 118°51'0 0.9
2017-Sep-15 16:57N 31°49' W 118°51'0 0.9
2017-Sep-15 16:23N 31°49' W 118°52'0 1.0
2017-Sep-15 16:00N 31°50' W 118°52'0 0.8
2017-Sep-15 15:30N 31°50' W 118°53'1 0.9
2017-Sep-15 14:57N 31°50' W 118°53'0 0.9
2017-Sep-15 14:30N 31°50' W 118°53'0 0.9
2017-Sep-15 14:00N 31°50' W 118°54'1 0.9
2017-Sep-15 13:26N 31°51' W 118°54'0 0.8
2017-Sep-15 13:00N 31°51' W 118°55'0 0.8
2017-Sep-15 12:27N 31°51' W 118°55'0 0.9
2017-Sep-15 12:00N 31°51' W 118°56'0 0.7
2017-Sep-15 11:30N 31°51' W 118°56'0 0.8
2017-Sep-15 11:00N 31°51' W 118°57'0 0.6
2017-Sep-15 10:30N 31°51' W 118°57'0 0.7
2017-Sep-15 10:00N 31°52' W 118°57'0 0.4
2017-Sep-15 09:30N 31°52' W 118°57'0 0.5
2017-Sep-15 09:00N 31°52' W 118°58'0 0.6
2017-Sep-15 08:30N 31°52' W 118°58'0 0.6
2017-Sep-15 08:00N 31°52' W 118°58'0 0.7
2017-Sep-15 07:30N 31°53' W 118°58'0 0.5
2017-Sep-15 07:00N 31°53' W 118°58'0 0.5
2017-Sep-15 06:30N 31°53' W 118°58'0 0.5
2017-Sep-15 05:55N 31°53' W 118°58'0 0.6
2017-Sep-15 05:29N 31°54' W 118°59'0 0.6
2017-Sep-15 05:00N 31°54' W 118°59'0 0.5
2017-Sep-15 04:29N 31°54' W 118°59'0 0.7
2017-Sep-15 04:00N 31°54' W 118°59'0 0.8
2017-Sep-15 03:30N 31°55' W 118°59'0 0.7
2017-Sep-15 03:00N 31°55' W 118°59'0 0.7
2017-Sep-15 02:29N 31°56' W 118°60'1 0.8
2017-Sep-15 01:50N 31°56' W 118°60'0 0.9
2017-Sep-15 01:30N 31°56' W 119°00'0 0.9
2017-Sep-15 01:00N 31°57' W 119°00'0 0.9
2017-Sep-15 00:30N 31°57' W 119°01'0 0.9
2017-Sep-14 23:59N 31°57' W 119°01'0 0.9
2017-Sep-14 23:30N 31°57' W 119°02'1 0.9
2017-Sep-14 22:45N 31°58' W 119°02'0 0.9
2017-Sep-14 22:30N 31°58' W 119°03'1 0.9
2017-Sep-14 21:56N 31°58' W 119°03'0 1.0
2017-Sep-14 21:30N 31°58' W 119°03'1 1.0
2017-Sep-14 20:55N 31°59' W 119°04'0 1.1
2017-Sep-14 20:30N 31°59' W 119°04'1 1.0
2017-Sep-14 19:54N 31°59' W 119°05'0 1.0
2017-Sep-14 19:25N 31°60' W 119°06'0 1.0
2017-Sep-14 19:00N 31°60' W 119°06'0 0.8
2017-Sep-14 18:30N 31°60' W 119°06'1 0.8
2017-Sep-14 17:11N 32°00' W 119°08'0 0.7
2017-Sep-14 17:00N 32°00' W 119°08'1 0.6
2017-Sep-14 16:10N 32°01' W 119°08'0 0.6
2017-Sep-14 15:26N 32°01' W 119°09'2 0.8
2017-Sep-14 13:19N 32°02' W 119°10'0 0.7
2017-Sep-14 13:00N 32°02' W 119°11'0 0.7
2017-Sep-14 12:28N 32°02' W 119°11'0 0.7
2017-Sep-14 12:00N 32°02' W 119°11'0 0.5
2017-Sep-14 11:30N 32°02' W 119°12'6 0.6
2017-Sep-14 01:48N 32°07' W 119°15'0 0.9
2017-Sep-14 01:19N 32°07' W 119°15'0 0.9
2017-Sep-14 00:59N 32°07' W 119°15'1 0.9
2017-Sep-14 00:18N 32°08' W 119°16'0 0.9
2017-Sep-13 23:59N 32°08' W 119°16'0 0.9
2017-Sep-13 23:28N 32°09' W 119°16'0 0.9
2017-Sep-13 23:00N 32°09' W 119°17'1 0.8
2017-Sep-13 22:15N 32°09' W 119°17'0 0.7
2017-Sep-13 22:00N 32°09' W 119°17'0 0.8
2017-Sep-13 21:26N 32°09' W 119°18'2810.2
2017-Sep-13 18:43N 31°55' W 118°50'312.0
2017-Sep-13 18:30N 31°53' W 118°47'611.7
2017-Sep-13 18:00N 31°50' W 118°42'5 8.3
2017-Sep-13 17:26N 31°46' W 118°38'1 1.5
2017-Sep-13 17:00N 31°46' W 118°39'1 1.3
2017-Sep-13 16:21N 31°46' W 118°40'0 1.2
2017-Sep-13 15:57N 31°45' W 118°40'0 1.0
2017-Sep-13 15:30N 31°45' W 118°41'1 1.0
2017-Sep-13 14:59N 31°45' W 118°42'1 1.0
2017-Sep-13 14:28N 31°45' W 118°42'0 0.9
2017-Sep-13 13:54N 31°45' W 118°43'0 0.8
2017-Sep-13 13:30N 31°45' W 118°43'0 0.7
2017-Sep-13 13:00N 31°45' W 118°43'0 0.6
2017-Sep-13 12:28N 31°45' W 118°44'0 0.4
2017-Sep-13 12:00N 31°45' W 118°44'0 0.4
2017-Sep-13 11:30N 31°45' W 118°44'0 0.4
2017-Sep-13 11:00N 31°45' W 118°45'0 0.4
2017-Sep-13 10:30N 31°45' W 118°45'0 0.6
2017-Sep-13 09:58N 31°45' W 118°45'0 0.7
2017-Sep-13 09:30N 31°45' W 118°45'0 0.7
2017-Sep-13 09:00N 31°46' W 118°46'0 0.8
2017-Sep-13 08:30N 31°46' W 118°46'0 0.9
2017-Sep-13 08:00N 31°46' W 118°46'1 1.1
2017-Sep-13 07:30N 31°47' W 118°47'1 1.1
2017-Sep-13 07:00N 31°47' W 118°47'1 1.2
2017-Sep-13 06:30N 31°48' W 118°47'1 1.2
2017-Sep-13 06:00N 31°48' W 118°48'1 1.2
2017-Sep-13 05:30N 31°49' W 118°48'1 1.4
2017-Sep-13 05:00N 31°49' W 118°49'1 1.5
2017-Sep-13 04:30N 31°50' W 118°49'1 1.4
2017-Sep-13 04:00N 31°50' W 118°50'1 1.4
2017-Sep-13 03:30N 31°51' W 118°50'1 1.4
2017-Sep-13 03:00N 31°51' W 118°51'1 1.4
2017-Sep-13 02:30N 31°52' W 118°52'1 1.5
2017-Sep-13 02:00N 31°52' W 118°52'1 1.5
2017-Sep-13 01:30N 31°52' W 118°53'1 1.5
2017-Sep-13 01:00N 31°53' W 118°54'1 1.4
2017-Sep-13 00:30N 31°53' W 118°55'1 1.2
2017-Sep-13 00:00N 31°53' W 118°55'1 1.1
2017-Sep-12 23:30N 31°53' W 118°56'1 1.0
2017-Sep-12 23:00N 31°54' W 118°57'1 1.1
2017-Sep-12 22:30N 31°54' W 118°57'1 1.1
2017-Sep-12 22:00N 31°54' W 118°58'1 1.1
2017-Sep-12 21:30N 31°55' W 118°58'0 0.9
2017-Sep-12 21:00N 31°55' W 118°59'0 1.0
2017-Sep-12 20:30N 31°55' W 118°59'0 1.0
2017-Sep-12 20:00N 31°55' W 118°60'0 0.9
2017-Sep-12 19:30N 31°55' W 119°00'0 0.8
2017-Sep-12 19:00N 31°55' W 119°01'0 0.8
2017-Sep-12 18:30N 31°55' W 119°01'0 0.7
2017-Sep-12 17:58N 31°56' W 119°02'0 0.6
2017-Sep-12 17:30N 31°56' W 119°02'0 0.7
2017-Sep-12 17:00N 31°56' W 119°02'0 0.5
2017-Sep-12 16:30N 31°56' W 119°03'0 0.5
2017-Sep-12 16:00N 31°56' W 119°03'0 0.5
2017-Sep-12 15:30N 31°56' W 119°03'0 0.4
2017-Sep-12 15:00N 31°56' W 119°03'0 0.5
2017-Sep-12 14:30N 31°56' W 119°03'0 0.4
2017-Sep-12 14:00N 31°57' W 119°04'0 0.6
2017-Sep-12 13:30N 31°57' W 119°04'0 0.5
2017-Sep-12 13:00N 31°57' W 119°04'0 0.4
2017-Sep-12 12:30N 31°57' W 119°04'0 0.4
2017-Sep-12 12:00N 31°57' W 119°05'0 0.3
2017-Sep-12 11:30N 31°57' W 119°05'0 0.5
2017-Sep-12 11:00N 31°57' W 119°05'0 0.4
2017-Sep-12 10:30N 31°57' W 119°05'0 0.4
2017-Sep-12 10:00N 31°57' W 119°05'0 0.4
2017-Sep-12 09:30N 31°58' W 119°05'0 0.6
2017-Sep-12 09:00N 31°58' W 119°05'0 0.6
2017-Sep-12 08:30N 31°58' W 119°05'0 0.6
2017-Sep-12 08:00N 31°59' W 119°05'0 0.7
2017-Sep-12 07:30N 31°59' W 119°05'0 0.8
2017-Sep-12 07:00N 31°59' W 119°05'0 0.8
2017-Sep-12 06:30N 31°60' W 119°05'1 1.0
2017-Sep-12 05:58N 32°00' W 119°05'0 1.0
2017-Sep-12 05:30N 32°01' W 119°05'0 1.0
2017-Sep-12 05:00N 32°01' W 119°05'1 1.0
2017-Sep-12 04:30N 32°02' W 119°05'1 1.2
2017-Sep-12 04:00N 32°02' W 119°05'1 1.2
2017-Sep-12 03:30N 32°03' W 119°06'1 1.2
2017-Sep-12 03:00N 32°03' W 119°06'1 1.2
2017-Sep-12 02:30N 32°04' W 119°06'1 1.2
2017-Sep-12 02:00N 32°04' W 119°07'1 1.1
2017-Sep-12 01:30N 32°05' W 119°07'1 1.1
2017-Sep-12 01:00N 32°05' W 119°08'1 1.1
2017-Sep-12 00:30N 32°05' W 119°08'0 1.0
2017-Sep-12 00:00N 32°06' W 119°09'0 1.0
2017-Sep-11 23:30N 32°06' W 119°09'1 1.1
2017-Sep-11 23:00N 32°06' W 119°10'1 1.2
2017-Sep-11 22:30N 32°06' W 119°10'0 1.0
2017-Sep-11 22:00N 32°07' W 119°11'1 1.0
2017-Sep-11 21:30N 32°07' W 119°12'0 1.0
2017-Sep-11 21:00N 32°07' W 119°12'0 1.0
2017-Sep-11 20:30N 32°07' W 119°13'0 0.8
2017-Sep-11 20:00N 32°07' W 119°13'0 0.8
2017-Sep-11 19:30N 32°07' W 119°14'0 0.7
2017-Sep-11 19:00N 32°07' W 119°14'0 0.5
2017-Sep-11 18:30N 32°08' W 119°14'0 0.7
2017-Sep-11 18:00N 32°08' W 119°15'0 0.7
2017-Sep-11 17:30N 32°08' W 119°15'0 0.9
2017-Sep-11 16:59N 32°08' W 119°15'0 0.8
2017-Sep-11 16:28N 32°08' W 119°16'0 0.6
2017-Sep-11 16:00N 32°08' W 119°16'0 0.6
2017-Sep-11 15:30N 32°08' W 119°17'0 0.6
2017-Sep-11 14:54N 32°09' W 119°17'0 0.6
2017-Sep-11 14:30N 32°09' W 119°17'0 0.5
2017-Sep-11 13:56N 32°09' W 119°17'0 0.5
2017-Sep-11 13:30N 32°09' W 119°18'0 0.4
2017-Sep-11 13:00N 32°09' W 119°18'0 0.4
2017-Sep-11 12:30N 32°09' W 119°18'0 0.4
2017-Sep-11 12:00N 32°09' W 119°18'0 0.4
2017-Sep-11 11:30N 32°09' W 119°18'0 0.5
2017-Sep-11 11:00N 32°10' W 119°19'0 0.5
2017-Sep-11 10:30N 32°10' W 119°19'0 0.5
2017-Sep-11 10:00N 32°10' W 119°19'0 0.6
2017-Sep-11 09:30N 32°10' W 119°19'0 0.7
2017-Sep-11 09:00N 32°11' W 119°19'0 0.7
2017-Sep-11 08:30N 32°11' W 119°19'0 0.8
2017-Sep-11 08:00N 32°11' W 119°20'0 0.9
2017-Sep-11 07:29N 32°12' W 119°20'1 1.1
2017-Sep-11 07:00N 32°12' W 119°20'1 1.1
2017-Sep-11 06:30N 32°13' W 119°21'1 1.2
2017-Sep-11 05:52N 32°13' W 119°21'0 1.3
2017-Sep-11 05:30N 32°13' W 119°22'1 1.4
2017-Sep-11 05:00N 32°14' W 119°23'1 1.4
2017-Sep-11 04:30N 32°14' W 119°23'1 1.4
2017-Sep-11 04:00N 32°15' W 119°24'1 1.5
2017-Sep-11 03:30N 32°15' W 119°25'1 1.7
2017-Sep-11 03:00N 32°15' W 119°25'1 1.7
2017-Sep-11 02:30N 32°16' W 119°26'1 1.7
2017-Sep-11 02:00N 32°16' W 119°27'1 1.7
2017-Sep-11 01:30N 32°17' W 119°28'1 1.7
2017-Sep-11 01:00N 32°17' W 119°29'1 1.7
2017-Sep-11 00:30N 32°17' W 119°30'1 1.6
2017-Sep-11 00:00N 32°18' W 119°31'1 1.5
2017-Sep-10 23:30N 32°18' W 119°31'1 1.4
2017-Sep-10 23:00N 32°18' W 119°32'1 1.3
2017-Sep-10 22:30N 32°19' W 119°33'1 1.2
2017-Sep-10 22:00N 32°19' W 119°34'1 1.1
2017-Sep-10 21:30N 32°19' W 119°34'1 1.1
2017-Sep-10 21:00N 32°19' W 119°35'0 0.9
2017-Sep-10 20:30N 32°19' W 119°35'0 0.8
2017-Sep-10 20:00N 32°20' W 119°36'0 0.8
2017-Sep-10 19:30N 32°20' W 119°36'0 1.0
2017-Sep-10 19:00N 32°20' W 119°37'0 1.0
2017-Sep-10 18:30N 32°20' W 119°37'0 0.9
2017-Sep-10 18:00N 32°20' W 119°38'1 1.1
2017-Sep-10 17:30N 32°20' W 119°39'0 0.9
2017-Sep-10 17:00N 32°20' W 119°39'1 1.3
2017-Sep-10 16:30N 32°19' W 119°39'3 5.9
2017-Sep-10 16:00N 32°16' W 119°40'1 1.3
2017-Sep-10 15:29N 32°16' W 119°40'0 0.6
2017-Sep-10 15:00N 32°16' W 119°41'1 0.6
2017-Sep-10 14:00N 32°16' W 119°41'0 0.5
2017-Sep-10 13:30N 32°16' W 119°42'0 0.6
2017-Sep-10 13:00N 32°16' W 119°42'0 0.6
2017-Sep-10 12:30N 32°16' W 119°42'0 0.8
2017-Sep-10 12:00N 32°16' W 119°43'0 0.7
2017-Sep-10 11:30N 32°16' W 119°43'0 0.7
2017-Sep-10 11:00N 32°16' W 119°44'0 0.7
2017-Sep-10 10:30N 32°17' W 119°44'0 0.7
2017-Sep-10 10:00N 32°17' W 119°45'0 0.7
2017-Sep-10 09:30N 32°17' W 119°45'0 0.7
2017-Sep-10 08:59N 32°16' W 119°45'0 0.6
2017-Sep-10 08:26N 32°16' W 119°46'0 0.6
2017-Sep-10 08:00N 32°16' W 119°46'  
Track history (hours):
 
Tides and Currents Weather Stations Pressure Air Temp Water Temp Dewpoint Dewpoint Depression Visibility Wind Speed Wind Dir Waves Ship Positions

Aquasurazo

Last reported at 2017-Sep-20 07:56 UTC. Time now 2017-Sep-24 14:11 UTC.
Position N 26°01' W 115°35'.

Length 244 m; draft 8.2 m.

Type: Tanker. MMSI: 636017858.

Date/timePositionNaut miles runAvg speedWind from/ knotsBaromVisibWave heightAir tempDewpointWater temp
2017-Sep-20 07:56N 26°01' W 115°35'37711.9
2017-Sep-19 00:19N 32°00' W 117°44'512.6
2017-Sep-18 23:54N 32°05' W 117°45'512.6
2017-Sep-18 23:28N 32°11' W 117°46'612.6
2017-Sep-18 23:00N 32°17' W 117°47'612.7
2017-Sep-18 22:30N 32°23' W 117°48'611.4
2017-Sep-18 22:00N 32°28' W 117°49'611.0
2017-Sep-18 21:30N 32°34' W 117°50'611.0
2017-Sep-18 21:00N 32°39' W 117°52'612.0
2017-Sep-18 20:30N 32°45' W 117°54'612.5
2017-Sep-18 20:00N 32°51' W 117°56'613.0
2017-Sep-18 19:31N 32°57' W 117°58'612.7
2017-Sep-18 19:00N 33°03' W 118°00'612.5
2017-Sep-18 18:30N 33°09' W 118°02'612.4
2017-Sep-18 18:00N 33°15' W 118°04'611.8
2017-Sep-18 17:30N 33°21' W 118°07'611.5
2017-Sep-18 17:00N 33°26' W 118°10'510.9
2017-Sep-18 16:30N 33°31' W 118°11'510.4
2017-Sep-18 16:00N 33°36' W 118°13'511.0
2017-Sep-18 15:30N 33°42' W 118°12'3 5.0
2017-Sep-18 14:57N 33°44' W 118°10'0 0.2
2017-Sep-18 14:30N 33°44' W 118°10'0 0.0
2017-Sep-18 13:48N 33°44' W 118°10'0 0.2
2017-Sep-18 13:30N 33°44' W 118°10'0 0.0
2017-Sep-18 12:54N 33°44' W 118°10'0 0.0
2017-Sep-18 12:30N 33°44' W 118°10'0 0.0
2017-Sep-18 12:00N 33°44' W 118°10'0 0.0
2017-Sep-18 11:24N 33°44' W 118°10'0 0.0
2017-Sep-18 11:00N 33°44' W 118°10'0 0.0
2017-Sep-18 10:30N 33°44' W 118°10'0 0.1
2017-Sep-18 10:00N 33°44' W 118°10'0 0.1
2017-Sep-18 09:30N 33°44' W 118°10'0 0.1
2017-Sep-18 09:00N 33°44' W 118°10'0 0.1
2017-Sep-18 08:27N 33°44' W 118°10'0 0.1
2017-Sep-18 07:57N 33°44' W 118°10'0 0.0
2017-Sep-18 07:30N 33°44' W 118°10'0 0.0
2017-Sep-18 06:57N 33°44' W 118°10'0 0.1
2017-Sep-18 06:27N 33°44' W 118°10'0 0.0
2017-Sep-18 05:57N 33°44' W 118°10'0 0.1
2017-Sep-18 05:30N 33°44' W 118°10'0 0.0
2017-Sep-18 04:57N 33°44' W 118°10'0 0.0
2017-Sep-18 02:09N 33°44' W 118°10'0 0.2
2017-Sep-18 01:54N 33°44' W 118°10'2 5.1
2017-Sep-18 01:30N 33°42' W 118°11'4 8.0
2017-Sep-18 01:00N 33°38' W 118°10'3 6.3
2017-Sep-18 00:30N 33°35' W 118°09'3 5.1
2017-Sep-18 00:00N 33°33' W 118°08'3 6.1
2017-Sep-17 23:30N 33°30' W 118°07'3 6.4
2017-Sep-17 23:00N 33°27' W 118°06'4 7.0
2017-Sep-17 22:30N 33°23' W 118°04'611.9
2017-Sep-17 22:00N 33°18' W 118°02'612.8
2017-Sep-17 21:30N 33°12' W 117°60'510.6
2017-Sep-17 21:00N 33°07' W 118°02'3 5.1
2017-Sep-17 20:31N 33°04' W 118°04'611.8
2017-Sep-17 20:01N 32°59' W 118°06'713.6
2017-Sep-17 19:30N 32°52' W 118°08'713.8
2017-Sep-17 19:01N 32°46' W 118°11'713.6
2017-Sep-17 18:31N 32°39' W 118°13'713.2
2017-Sep-17 18:01N 32°34' W 118°18'714.0
2017-Sep-17 17:30N 32°28' W 118°23'914.0
2017-Sep-17 16:52N 32°21' W 118°29'614.1
2017-Sep-17 16:25N 32°16' W 118°34'613.8
2017-Sep-17 16:00N 32°11' W 118°38'713.6
2017-Sep-17 15:30N 32°06' W 118°42'713.9
2017-Sep-17 15:00N 32°01' W 118°47'713.7
2017-Sep-17 14:30N 31°54' W 118°51'713.4
2017-Sep-17 14:01N 31°48' W 118°54'713.9
2017-Sep-17 13:30N 31°42' W 118°58'713.3
2017-Sep-17 13:00N 31°36' W 119°01'2 3.1
2017-Sep-17 12:26N 31°36' W 119°03'1 1.9
2017-Sep-17 12:00N 31°36' W 119°04'1 1.8
2017-Sep-17 11:30N 31°36' W 119°05'1 2.2
2017-Sep-17 10:51N 31°37' W 119°07'1 2.4
2017-Sep-17 10:30N 31°37' W 119°08'2 2.8
2017-Sep-17 09:56N 31°38' W 119°09'1 2.3
2017-Sep-17 09:30N 31°38' W 119°10'1 1.5
2017-Sep-17 09:00N 31°39' W 119°11'1 1.4
2017-Sep-17 08:30N 31°39' W 119°11'1 1.5
2017-Sep-17 07:59N 31°40' W 119°12'1 1.4
2017-Sep-17 07:29N 31°40' W 119°12'1 1.3
2017-Sep-17 06:59N 31°41' W 119°13'1 1.3
2017-Sep-17 06:26N 31°41' W 119°13'1 1.7
2017-Sep-17 05:56N 31°42' W 119°14'1 1.6
2017-Sep-17 05:30N 31°43' W 119°14'1 1.6
2017-Sep-17 05:00N 31°43' W 119°15'1 1.7
2017-Sep-17 04:29N 31°44' W 119°16'1 2.0
2017-Sep-17 04:00N 31°45' W 119°16'1 2.0
2017-Sep-17 03:30N 31°45' W 119°17'1 2.0
2017-Sep-17 03:00N 31°46' W 119°18'1 1.9
2017-Sep-17 02:28N 31°47' W 119°18'1 2.0
2017-Sep-17 02:00N 31°48' W 119°19'1 2.1
2017-Sep-17 01:30N 31°49' W 119°20'1 2.3
2017-Sep-17 01:00N 31°50' W 119°20'1 2.4
2017-Sep-17 00:30N 31°51' W 119°21'1 2.5
2017-Sep-17 00:00N 31°52' W 119°22'1 2.5
2017-Sep-16 23:30N 31°53' W 119°23'1 2.6
2017-Sep-16 23:00N 31°54' W 119°24'1 2.6
2017-Sep-16 22:30N 31°55' W 119°25'1 2.5
2017-Sep-16 22:00N 31°56' W 119°26'1 2.3
2017-Sep-16 21:30N 31°56' W 119°27'1 2.5
2017-Sep-16 21:00N 31°57' W 119°28'1 2.4
2017-Sep-16 20:30N 31°58' W 119°29'1 2.3
2017-Sep-16 20:00N 31°59' W 119°30'1 2.5
2017-Sep-16 19:30N 31°60' W 119°31'1 2.6
2017-Sep-16 19:00N 32°00' W 119°32'1 2.5
2017-Sep-16 18:30N 32°01' W 119°33'1 2.3
2017-Sep-16 18:00N 32°02' W 119°35'1 2.9
2017-Sep-16 17:30N 32°03' W 119°36'2 4.6
2017-Sep-16 17:00N 32°04' W 119°38'2 4.5
2017-Sep-16 16:30N 32°05' W 119°40'2 3.9
2017-Sep-16 16:00N 32°06' W 119°42'2 3.0
2017-Sep-16 15:30N 32°07' W 119°44'1 2.6
2017-Sep-16 15:00N 32°08' W 119°45'1 2.8
2017-Sep-16 14:30N 32°09' W 119°47'1 2.9
2017-Sep-16 14:00N 32°10' W 119°48'4 8.6
2017-Sep-16 13:30N 32°14' W 119°48'1 2.0
2017-Sep-16 12:54N 32°14' W 119°49'1 1.4
2017-Sep-16 12:30N 32°15' W 119°50'1 1.4
2017-Sep-16 12:00N 32°15' W 119°51'1 1.1
2017-Sep-16 11:29N 32°15' W 119°51'2 4.6
2017-Sep-16 10:59N 32°13' W 119°52'510.6
2017-Sep-16 10:30N 32°08' W 119°53'510.6
2017-Sep-16 10:00N 32°03' W 119°54'3 5.2
2017-Sep-16 09:30N 32°00' W 119°52'1 2.1
2017-Sep-16 09:00N 32°01' W 119°52'11 2.4
2017-Sep-16 04:11N 32°13' W 119°51'2 2.4
2017-Sep-16 03:17N 32°15' W 119°52'1 2.3
2017-Sep-16 02:48N 32°16' W 119°52'1 2.2
2017-Sep-16 02:30N 32°17' W 119°52'0 0.9
2017-Sep-16 02:00N 32°17' W 119°52'6 8.7
2017-Sep-16 01:19N 32°14' W 119°46'311.0
2017-Sep-16 01:00N 32°13' W 119°42'510.9
2017-Sep-16 00:30N 32°10' W 119°36'510.9
2017-Sep-16 00:00N 32°08' W 119°31'611.0
2017-Sep-15 23:28N 32°05' W 119°25'511.0
2017-Sep-15 23:00N 32°02' W 119°19'611.2
2017-Sep-15 22:30N 31°60' W 119°14'611.3
2017-Sep-15 22:00N 31°57' W 119°08'611.2
2017-Sep-15 21:30N 31°54' W 119°02'611.3
2017-Sep-15 21:00N 31°52' W 118°56'611.2
2017-Sep-15 20:30N 31°49' W 118°50'2 4.5
2017-Sep-15 20:00N 31°48' W 118°48'1 1.1
2017-Sep-15 19:17N 31°48' W 118°49'0 1.1
2017-Sep-15 19:00N 31°48' W 118°49'1 1.0
2017-Sep-15 17:42N 31°49' W 118°51'0 0.9
2017-Sep-15 17:25N 31°49' W 118°51'0 0.9
2017-Sep-15 16:57N 31°49' W 118°51'0 0.9
2017-Sep-15 16:23N 31°49' W 118°52'0 1.0
2017-Sep-15 16:00N 31°50' W 118°52'0 0.8
2017-Sep-15 15:30N 31°50' W 118°53'1 0.9
2017-Sep-15 14:57N 31°50' W 118°53'0 0.9
2017-Sep-15 14:30N 31°50' W 118°53'0 0.9
2017-Sep-15 14:00N 31°50' W 118°54'1 0.9
2017-Sep-15 13:26N 31°51' W 118°54'0 0.8
2017-Sep-15 13:00N 31°51' W 118°55'0 0.8
2017-Sep-15 12:27N 31°51' W 118°55'0 0.9
2017-Sep-15 12:00N 31°51' W 118°56'0 0.7
2017-Sep-15 11:30N 31°51' W 118°56'0 0.8
2017-Sep-15 11:00N 31°51' W 118°57'0 0.6
2017-Sep-15 10:30N 31°51' W 118°57'0 0.7
2017-Sep-15 10:00N 31°52' W 118°57'0 0.4
2017-Sep-15 09:30N 31°52' W 118°57'0 0.5
2017-Sep-15 09:00N 31°52' W 118°58'0 0.6
2017-Sep-15 08:30N 31°52' W 118°58'0 0.6
2017-Sep-15 08:00N 31°52' W 118°58'0 0.7
2017-Sep-15 07:30N 31°53' W 118°58'0 0.5
2017-Sep-15 07:00N 31°53' W 118°58'0 0.5
2017-Sep-15 06:30N 31°53' W 118°58'0 0.5
2017-Sep-15 05:55N 31°53' W 118°58'0 0.6
2017-Sep-15 05:29N 31°54' W 118°59'0 0.6
2017-Sep-15 05:00N 31°54' W 118°59'0 0.5
2017-Sep-15 04:29N 31°54' W 118°59'0 0.7
2017-Sep-15 04:00N 31°54' W 118°59'0 0.8
2017-Sep-15 03:30N 31°55' W 118°59'0 0.7
2017-Sep-15 03:00N 31°55' W 118°59'0 0.7
2017-Sep-15 02:29N 31°56' W 118°60'1 0.8
2017-Sep-15 01:50N 31°56' W 118°60'0 0.9
2017-Sep-15 01:30N 31°56' W 119°00'0 0.9
2017-Sep-15 01:00N 31°57' W 119°00'0 0.9
2017-Sep-15 00:30N 31°57' W 119°01'0 0.9
2017-Sep-14 23:59N 31°57' W 119°01'0 0.9
2017-Sep-14 23:30N 31°57' W 119°02'1 0.9
2017-Sep-14 22:45N 31°58' W 119°02'0 0.9
2017-Sep-14 22:30N 31°58' W 119°03'1 0.9
2017-Sep-14 21:56N 31°58' W 119°03'0 1.0
2017-Sep-14 21:30N 31°58' W 119°03'1 1.0
2017-Sep-14 20:55N 31°59' W 119°04'0 1.1
2017-Sep-14 20:30N 31°59' W 119°04'1 1.0
2017-Sep-14 19:54N 31°59' W 119°05'0 1.0
2017-Sep-14 19:25N 31°60' W 119°06'0 1.0
2017-Sep-14 19:00N 31°60' W 119°06'0 0.8
2017-Sep-14 18:30N 31°60' W 119°06'1 0.8
2017-Sep-14 17:11N 32°00' W 119°08'0 0.7
2017-Sep-14 17:00N 32°00' W 119°08'1 0.6
2017-Sep-14 16:10N 32°01' W 119°08'0 0.6
2017-Sep-14 15:26N 32°01' W 119°09'2 0.8
2017-Sep-14 13:19N 32°02' W 119°10'0 0.7
2017-Sep-14 13:00N 32°02' W 119°11'0 0.7
2017-Sep-14 12:28N 32°02' W 119°11'0 0.7
2017-Sep-14 12:00N 32°02' W 119°11'0 0.5
2017-Sep-14 11:30N 32°02' W 119°12'6 0.6
2017-Sep-14 01:48N 32°07' W 119°15'0 0.9
2017-Sep-14 01:19N 32°07' W 119°15'0 0.9
2017-Sep-14 00:59N 32°07' W 119°15'1 0.9
2017-Sep-14 00:18N 32°08' W 119°16'0 0.9
2017-Sep-13 23:59N 32°08' W 119°16'0 0.9
2017-Sep-13 23:28N 32°09' W 119°16'0 0.9
2017-Sep-13 23:00N 32°09' W 119°17'1 0.8
2017-Sep-13 22:15N 32°09' W 119°17'0 0.7
2017-Sep-13 22:00N 32°09' W 119°17'0 0.8
2017-Sep-13 21:26N 32°09' W 119°18'2810.2
2017-Sep-13 18:43N 31°55' W 118°50'312.0
2017-Sep-13 18:30N 31°53' W 118°47'611.7
2017-Sep-13 18:00N 31°50' W 118°42'5 8.3
2017-Sep-13 17:26N 31°46' W 118°38'1 1.5
2017-Sep-13 17:00N 31°46' W 118°39'1 1.3
2017-Sep-13 16:21N 31°46' W 118°40'0 1.2
2017-Sep-13 15:57N 31°45' W 118°40'0 1.0
2017-Sep-13 15:30N 31°45' W 118°41'1 1.0
2017-Sep-13 14:59N 31°45' W 118°42'1 1.0
2017-Sep-13 14:28N 31°45' W 118°42'0 0.9
2017-Sep-13 13:54N 31°45' W 118°43'0 0.8
2017-Sep-13 13:30N 31°45' W 118°43'0 0.7
2017-Sep-13 13:00N 31°45' W 118°43'0 0.6
2017-Sep-13 12:28N 31°45' W 118°44'0 0.4
2017-Sep-13 12:00N 31°45' W 118°44'0 0.4
2017-Sep-13 11:30N 31°45' W 118°44'0 0.4
2017-Sep-13 11:00N 31°45' W 118°45'0 0.4
2017-Sep-13 10:30N 31°45' W 118°45'0 0.6
2017-Sep-13 09:58N 31°45' W 118°45'0 0.7
2017-Sep-13 09:30N 31°45' W 118°45'0 0.7
2017-Sep-13 09:00N 31°46' W 118°46'0 0.8
2017-Sep-13 08:30N 31°46' W 118°46'0 0.9
2017-Sep-13 08:00N 31°46' W 118°46'1 1.1
2017-Sep-13 07:30N 31°47' W 118°47'1 1.1
2017-Sep-13 07:00N 31°47' W 118°47'1 1.2
2017-Sep-13 06:30N 31°48' W 118°47'1 1.2
2017-Sep-13 06:00N 31°48' W 118°48'1 1.2
2017-Sep-13 05:30N 31°49' W 118°48'1 1.4
2017-Sep-13 05:00N 31°49' W 118°49'1 1.5
2017-Sep-13 04:30N 31°50' W 118°49'1 1.4
2017-Sep-13 04:00N 31°50' W 118°50'1 1.4
2017-Sep-13 03:30N 31°51' W 118°50'1 1.4
2017-Sep-13 03:00N 31°51' W 118°51'1 1.4
2017-Sep-13 02:30N 31°52' W 118°52'1 1.5
2017-Sep-13 02:00N 31°52' W 118°52'1 1.5
2017-Sep-13 01:30N 31°52' W 118°53'1 1.5
2017-Sep-13 01:00N 31°53' W 118°54'1 1.4
2017-Sep-13 00:30N 31°53' W 118°55'1 1.2
2017-Sep-13 00:00N 31°53' W 118°55'1 1.1
2017-Sep-12 23:30N 31°53' W 118°56'1 1.0
2017-Sep-12 23:00N 31°54' W 118°57'1 1.1
2017-Sep-12 22:30N 31°54' W 118°57'1 1.1
2017-Sep-12 22:00N 31°54' W 118°58'1 1.1
2017-Sep-12 21:30N 31°55' W 118°58'0 0.9
2017-Sep-12 21:00N 31°55' W 118°59'0 1.0
2017-Sep-12 20:30N 31°55' W 118°59'0 1.0
2017-Sep-12 20:00N 31°55' W 118°60'0 0.9
2017-Sep-12 19:30N 31°55' W 119°00'0 0.8
2017-Sep-12 19:00N 31°55' W 119°01'0 0.8
2017-Sep-12 18:30N 31°55' W 119°01'0 0.7
2017-Sep-12 17:58N 31°56' W 119°02'0 0.6
2017-Sep-12 17:30N 31°56' W 119°02'0 0.7
2017-Sep-12 17:00N 31°56' W 119°02'0 0.5
2017-Sep-12 16:30N 31°56' W 119°03'0 0.5
2017-Sep-12 16:00N 31°56' W 119°03'0 0.5
2017-Sep-12 15:30N 31°56' W 119°03'0 0.4
2017-Sep-12 15:00N 31°56' W 119°03'0 0.5
2017-Sep-12 14:30N 31°56' W 119°03'0 0.4
2017-Sep-12 14:00N 31°57' W 119°04'0 0.6
2017-Sep-12 13:30N 31°57' W 119°04'0 0.5
2017-Sep-12 13:00N 31°57' W 119°04'0 0.4
2017-Sep-12 12:30N 31°57' W 119°04'0 0.4
2017-Sep-12 12:00N 31°57' W 119°05'0 0.3
2017-Sep-12 11:30N 31°57' W 119°05'0 0.5
2017-Sep-12 11:00N 31°57' W 119°05'0 0.4
2017-Sep-12 10:30N 31°57' W 119°05'0 0.4
2017-Sep-12 10:00N 31°57' W 119°05'0 0.4
2017-Sep-12 09:30N 31°58' W 119°05'0 0.6
2017-Sep-12 09:00N 31°58' W 119°05'0 0.6
2017-Sep-12 08:30N 31°58' W 119°05'0 0.6
2017-Sep-12 08:00N 31°59' W 119°05'0 0.7
2017-Sep-12 07:30N 31°59' W 119°05'0 0.8
2017-Sep-12 07:00N 31°59' W 119°05'0 0.8
2017-Sep-12 06:30N 31°60' W 119°05'1 1.0
2017-Sep-12 05:58N 32°00' W 119°05'0 1.0
2017-Sep-12 05:30N 32°01' W 119°05'0 1.0
2017-Sep-12 05:00N 32°01' W 119°05'1 1.0
2017-Sep-12 04:30N 32°02' W 119°05'1 1.2
2017-Sep-12 04:00N 32°02' W 119°05'1 1.2
2017-Sep-12 03:30N 32°03' W 119°06'1 1.2
2017-Sep-12 03:00N 32°03' W 119°06'1 1.2
2017-Sep-12 02:30N 32°04' W 119°06'1 1.2
2017-Sep-12 02:00N 32°04' W 119°07'1 1.1
2017-Sep-12 01:30N 32°05' W 119°07'1 1.1
2017-Sep-12 01:00N 32°05' W 119°08'1 1.1
2017-Sep-12 00:30N 32°05' W 119°08'0 1.0
2017-Sep-12 00:00N 32°06' W 119°09'0 1.0
2017-Sep-11 23:30N 32°06' W 119°09'1 1.1
2017-Sep-11 23:00N 32°06' W 119°10'1 1.2
2017-Sep-11 22:30N 32°06' W 119°10'0 1.0
2017-Sep-11 22:00N 32°07' W 119°11'1 1.0
2017-Sep-11 21:30N 32°07' W 119°12'0 1.0
2017-Sep-11 21:00N 32°07' W 119°12'0 1.0
2017-Sep-11 20:30N 32°07' W 119°13'0 0.8
2017-Sep-11 20:00N 32°07' W 119°13'0 0.8
2017-Sep-11 19:30N 32°07' W 119°14'0 0.7
2017-Sep-11 19:00N 32°07' W 119°14'0 0.5
2017-Sep-11 18:30N 32°08' W 119°14'0 0.7
2017-Sep-11 18:00N 32°08' W 119°15'0 0.7
2017-Sep-11 17:30N 32°08' W 119°15'0 0.9
2017-Sep-11 16:59N 32°08' W 119°15'0 0.8
2017-Sep-11 16:28N 32°08' W 119°16'0 0.6
2017-Sep-11 16:00N 32°08' W 119°16'0 0.6
2017-Sep-11 15:30N 32°08' W 119°17'0 0.6
2017-Sep-11 14:54N 32°09' W 119°17'0 0.6
2017-Sep-11 14:30N 32°09' W 119°17'0 0.5
2017-Sep-11 13:56N 32°09' W 119°17'0 0.5
2017-Sep-11 13:30N 32°09' W 119°18'0 0.4
2017-Sep-11 13:00N 32°09' W 119°18'0 0.4
2017-Sep-11 12:30N 32°09' W 119°18'0 0.4
2017-Sep-11 12:00N 32°09' W 119°18'0 0.4
2017-Sep-11 11:30N 32°09' W 119°18'0 0.5
2017-Sep-11 11:00N 32°10' W 119°19'0 0.5
2017-Sep-11 10:30N 32°10' W 119°19'0 0.5
2017-Sep-11 10:00N 32°10' W 119°19'0 0.6
2017-Sep-11 09:30N 32°10' W 119°19'0 0.7
2017-Sep-11 09:00N 32°11' W 119°19'0 0.7
2017-Sep-11 08:30N 32°11' W 119°19'0 0.8
2017-Sep-11 08:00N 32°11' W 119°20'0 0.9
2017-Sep-11 07:29N 32°12' W 119°20'1 1.1
2017-Sep-11 07:00N 32°12' W 119°20'1 1.1
2017-Sep-11 06:30N 32°13' W 119°21'1 1.2
2017-Sep-11 05:52N 32°13' W 119°21'0 1.3
2017-Sep-11 05:30N 32°13' W 119°22'1 1.4
2017-Sep-11 05:00N 32°14' W 119°23'1 1.4
2017-Sep-11 04:30N 32°14' W 119°23'1 1.4
2017-Sep-11 04:00N 32°15' W 119°24'1 1.5
2017-Sep-11 03:30N 32°15' W 119°25'1 1.7
2017-Sep-11 03:00N 32°15' W 119°25'1 1.7
2017-Sep-11 02:30N 32°16' W 119°26'1 1.7
2017-Sep-11 02:00N 32°16' W 119°27'1 1.7
2017-Sep-11 01:30N 32°17' W 119°28'1 1.7
2017-Sep-11 01:00N 32°17' W 119°29'1 1.7
2017-Sep-11 00:30N 32°17' W 119°30'1 1.6
2017-Sep-11 00:00N 32°18' W 119°31'1 1.5
2017-Sep-10 23:30N 32°18' W 119°31'1 1.4
2017-Sep-10 23:00N 32°18' W 119°32'1 1.3
2017-Sep-10 22:30N 32°19' W 119°33'1 1.2
2017-Sep-10 22:00N 32°19' W 119°34'1 1.1
2017-Sep-10 21:30N 32°19' W 119°34'1 1.1
2017-Sep-10 21:00N 32°19' W 119°35'0 0.9
2017-Sep-10 20:30N 32°19' W 119°35'0 0.8
2017-Sep-10 20:00N 32°20' W 119°36'0 0.8
2017-Sep-10 19:30N 32°20' W 119°36'0 1.0
2017-Sep-10 19:00N 32°20' W 119°37'0 1.0
2017-Sep-10 18:30N 32°20' W 119°37'0 0.9
2017-Sep-10 18:00N 32°20' W 119°38'1 1.1
2017-Sep-10 17:30N 32°20' W 119°39'0 0.9
2017-Sep-10 17:00N 32°20' W 119°39'1 1.3
2017-Sep-10 16:30N 32°19' W 119°39'3 5.9
2017-Sep-10 16:00N 32°16' W 119°40'1 1.3
2017-Sep-10 15:29N 32°16' W 119°40'0 0.6
2017-Sep-10 15:00N 32°16' W 119°41'1 0.6
2017-Sep-10 14:00N 32°16' W 119°41'0 0.5
2017-Sep-10 13:30N 32°16' W 119°42'0 0.6
2017-Sep-10 13:00N 32°16' W 119°42'0 0.6
2017-Sep-10 12:30N 32°16' W 119°42'0 0.8
2017-Sep-10 12:00N 32°16' W 119°43'0 0.7
2017-Sep-10 11:30N 32°16' W 119°43'0 0.7
2017-Sep-10 11:00N 32°16' W 119°44'0 0.7
2017-Sep-10 10:30N 32°17' W 119°44'0 0.7
2017-Sep-10 10:00N 32°17' W 119°45'0 0.7
2017-Sep-10 09:30N 32°17' W 119°45'0 0.7
2017-Sep-10 08:59N 32°16' W 119°45'0 0.6
2017-Sep-10 08:26N 32°16' W 119°46'0 0.6
2017-Sep-10 08:00N 32°16' W 119°46'  

Dump ship's entire track history